sensor_id;sensor_type;location;lat;lon;timestamp;temperature;humidity
7034;DHT22;3558;53.176;10.412;2024-03-23T03:47:14;13.10;70.60
7034;DHT22;3558;53.176;10.412;2024-03-23T03:49:39;13.10;70.60
7034;DHT22;3558;53.176;10.412;2024-03-23T03:52:05;13.00;70.60
7034;DHT22;3558;53.176;10.412;2024-03-23T03:54:31;13.10;70.60
7034;DHT22;3558;53.176;10.412;2024-03-23T03:56:56;13.00;70.50
7034;DHT22;3558;53.176;10.412;2024-03-23T03:59:22;13.00;70.50
7034;DHT22;3558;53.176;10.412;2024-03-23T04:01:47;13.00;70.50
7034;DHT22;3558;53.176;10.412;2024-03-23T04:04:13;13.00;70.50
7034;DHT22;3558;53.176;10.412;2024-03-23T04:06:39;13.00;70.50
7034;DHT22;3558;53.176;10.412;2024-03-23T04:09:04;13.00;70.50
7034;DHT22;3558;53.176;10.412;2024-03-23T04:11:31;13.00;70.50
7034;DHT22;3558;53.176;10.412;2024-03-23T04:13:57;12.90;70.40
7034;DHT22;3558;53.176;10.412;2024-03-23T04:16:35;13.00;70.50
7034;DHT22;3558;53.176;10.412;2024-03-23T04:19:00;12.90;70.50
7034;DHT22;3558;53.176;10.412;2024-03-23T04:21:26;12.90;70.50
7034;DHT22;3558;53.176;10.412;2024-03-23T04:23:52;12.90;70.40
7034;DHT22;3558;53.176;10.412;2024-03-23T04:26:17;12.90;70.50
7034;DHT22;3558;53.176;10.412;2024-03-23T04:28:43;12.90;70.40
7034;DHT22;3558;53.176;10.412;2024-03-23T04:31:09;12.90;70.40
7034;DHT22;3558;53.176;10.412;2024-03-23T04:33:34;12.90;70.40
7034;DHT22;3558;53.176;10.412;2024-03-23T04:36:00;12.90;70.40
7034;DHT22;3558;53.176;10.412;2024-03-23T04:38:25;12.90;70.30
7034;DHT22;3558;53.176;10.412;2024-03-23T04:40:58;12.80;70.30
7034;DHT22;3558;53.176;10.412;2024-03-23T04:43:23;12.80;70.30
7034;DHT22;3558;53.176;10.412;2024-03-23T04:45:49;12.80;70.30
7034;DHT22;3558;53.176;10.412;2024-03-23T04:48:15;12.80;70.30
7034;DHT22;3558;53.176;10.412;2024-03-23T04:50:40;12.80;70.30
7034;DHT22;3558;53.176;10.412;2024-03-23T04:53:06;12.80;70.30
7034;DHT22;3558;53.176;10.412;2024-03-23T04:55:32;12.80;70.30
7034;DHT22;3558;53.176;10.412;2024-03-23T04:57:57;12.80;70.30
7034;DHT22;3558;53.176;10.412;2024-03-23T05:00:23;12.80;70.30
7034;DHT22;3558;53.176;10.412;2024-03-23T05:02:48;12.70;70.20
7034;DHT22;3558;53.176;10.412;2024-03-23T05:05:14;12.70;70.20
7034;DHT22;3558;53.176;10.412;2024-03-23T05:07:39;12.80;70.30
7034;DHT22;3558;53.176;10.412;2024-03-23T05:10:07;12.70;70.20
7034;DHT22;3558;53.176;10.412;2024-03-23T05:12:35;12.70;70.20
7034;DHT22;3558;53.176;10.412;2024-03-23T05:15:01;12.70;70.20
7034;DHT22;3558;53.176;10.412;2024-03-23T05:17:26;12.70;70.20
7034;DHT22;3558;53.176;10.412;2024-03-23T05:19:52;12.70;70.20
7034;DHT22;3558;53.176;10.412;2024-03-23T05:22:17;12.70;70.20
7034;DHT22;3558;53.176;10.412;2024-03-23T05:24:45;12.60;70.20
7034;DHT22;3558;53.176;10.412;2024-03-23T05:27:10;12.60;70.20
7034;DHT22;3558;53.176;10.412;2024-03-23T05:29:36;12.70;70.20
7034;DHT22;3558;53.176;10.412;2024-03-23T05:32:01;12.70;70.20
7034;DHT22;3558;53.176;10.412;2024-03-23T05:34:27;12.70;70.20
7034;DHT22;3558;53.176;10.412;2024-03-23T05:36:54;12.60;70.10
7034;DHT22;3558;53.176;10.412;2024-03-23T05:39:20;12.60;70.10
7034;DHT22;3558;53.176;10.412;2024-03-23T05:41:47;12.60;70.10
7034;DHT22;3558;53.176;10.412;2024-03-23T05:44:13;12.60;70.00
7034;DHT22;3558;53.176;10.412;2024-03-23T05:46:39;12.60;70.00
7034;DHT22;3558;53.176;10.412;2024-03-23T05:49:04;12.60;70.00
7034;DHT22;3558;53.176;10.412;2024-03-23T05:51:30;12.60;70.10
7034;DHT22;3558;53.176;10.412;2024-03-23T05:53:55;12.60;70.10
7034;DHT22;3558;53.176;10.412;2024-03-23T05:56:21;12.60;70.00
7034;DHT22;3558;53.176;10.412;2024-03-23T05:58:46;12.60;70.10
7034;DHT22;3558;53.176;10.412;2024-03-23T06:01:12;12.60;70.10
7034;DHT22;3558;53.176;10.412;2024-03-23T06:03:38;12.60;70.20
7034;DHT22;3558;53.176;10.412;2024-03-23T06:06:03;12.60;70.10
7034;DHT22;3558;53.176;10.412;2024-03-23T06:08:29;12.50;70.10
7034;DHT22;3558;53.176;10.412;2024-03-23T06:10:55;12.60;70.10
7034;DHT22;3558;53.176;10.412;2024-03-23T06:13:21;12.60;70.10
7034;DHT22;3558;53.176;10.412;2024-03-23T06:15:50;12.60;70.10
7034;DHT22;3558;53.176;10.412;2024-03-23T06:18:15;12.50;70.10
7034;DHT22;3558;53.176;10.412;2024-03-23T06:20:41;12.50;70.10
7034;DHT22;3558;53.176;10.412;2024-03-23T06:23:06;12.40;70.00
7034;DHT22;3558;53.176;10.412;2024-03-23T06:25:32;12.50;70.10
7034;DHT22;3558;53.176;10.412;2024-03-23T06:27:57;12.50;70.10
7034;DHT22;3558;53.176;10.412;2024-03-23T06:30:28;12.50;70.20
7034;DHT22;3558;53.176;10.412;2024-03-23T06:32:55;12.60;70.20
7034;DHT22;3558;53.176;10.412;2024-03-23T06:35:23;12.50;70.20
7034;DHT22;3558;53.176;10.412;2024-03-23T06:37:48;12.50;70.20
7034;DHT22;3558;53.176;10.412;2024-03-23T06:40:14;12.50;70.30
7034;DHT22;3558;53.176;10.412;2024-03-23T06:42:39;12.50;70.30
7034;DHT22;3558;53.176;10.412;2024-03-23T06:45:05;12.50;70.30
7034;DHT22;3558;53.176;10.412;2024-03-23T06:47:31;12.50;70.40
7034;DHT22;3558;53.176;10.412;2024-03-23T06:49:57;12.60;70.40
7034;DHT22;3558;53.176;10.412;2024-03-23T06:52:22;12.40;70.40
7034;DHT22;3558;53.176;10.412;2024-03-23T06:54:48;12.60;70.50
7034;DHT22;3558;53.176;10.412;2024-03-23T06:57:13;12.50;70.50
7034;DHT22;3558;53.176;10.412;2024-03-23T06:59:39;12.50;70.50
7034;DHT22;3558;53.176;10.412;2024-03-23T07:02:05;12.50;70.60
7034;DHT22;3558;53.176;10.412;2024-03-23T07:04:34;12.60;70.70
7034;DHT22;3558;53.176;10.412;2024-03-23T07:06:59;12.60;70.70
7034;DHT22;3558;53.176;10.412;2024-03-23T07:09:25;12.60;70.70
7034;DHT22;3558;53.176;10.412;2024-03-23T07:11:54;12.60;70.70
7034;DHT22;3558;53.176;10.412;2024-03-23T07:14:20;12.60;70.80
7034;DHT22;3558;53.176;10.412;2024-03-23T07:16:45;12.60;71.00
7034;DHT22;3558;53.176;10.412;2024-03-23T07:19:10;12.60;71.60
7034;DHT22;3558;53.176;10.412;2024-03-23T07:21:36;12.60;71.10
7034;DHT22;3558;53.176;10.412;2024-03-23T07:24:01;12.70;71.20
7034;DHT22;3558;53.176;10.412;2024-03-23T07:26:27;12.70;71.40
7034;DHT22;3558;53.176;10.412;2024-03-23T07:28:52;12.70;71.50
7034;DHT22;3558;53.176;10.412;2024-03-23T07:31:19;12.70;71.70
7034;DHT22;3558;53.176;10.412;2024-03-23T07:33:47;12.70;71.70
7034;DHT22;3558;53.176;10.412;2024-03-23T07:36:13;12.80;71.90
7034;DHT22;3558;53.176;10.412;2024-03-23T07:38:42;12.80;72.00
7034;DHT22;3558;53.176;10.412;2024-03-23T07:41:09;12.80;72.10
7034;DHT22;3558;53.176;10.412;2024-03-23T07:43:36;12.80;72.10
7034;DHT22;3558;53.176;10.412;2024-03-23T07:46:02;12.80;72.20
7034;DHT22;3558;53.176;10.412;2024-03-23T07:48:29;12.90;72.40
7034;DHT22;3558;53.176;10.412;2024-03-23T07:51:02;12.90;72.40
7034;DHT22;3558;53.176;10.412;2024-03-23T07:53:28;12.90;72.50
7034;DHT22;3558;53.176;10.412;2024-03-23T07:55:58;12.90;72.60
7034;DHT22;3558;53.176;10.412;2024-03-23T07:58:25;12.90;72.70
7034;DHT22;3558;53.176;10.412;2024-03-23T08:00:50;12.90;72.80
7034;DHT22;3558;53.176;10.412;2024-03-23T08:03:16;13.00;72.90
7034;DHT22;3558;53.176;10.412;2024-03-23T08:05:41;13.00;72.90
7034;DHT22;3558;53.176;10.412;2024-03-23T08:08:07;13.10;73.20
7034;DHT22;3558;53.176;10.412;2024-03-23T08:10:32;13.10;73.40
7034;DHT22;3558;53.176;10.412;2024-03-23T08:12:58;13.10;73.40
7034;DHT22;3558;53.176;10.412;2024-03-23T08:15:23;13.10;73.20
7034;DHT22;3558;53.176;10.412;2024-03-23T08:17:49;13.10;73.30
7034;DHT22;3558;53.176;10.412;2024-03-23T08:20:15;13.20;73.30
7034;DHT22;3558;53.176;10.412;2024-03-23T08:22:40;13.20;73.30
7034;DHT22;3558;53.176;10.412;2024-03-23T08:25:06;13.20;73.30
7034;DHT22;3558;53.176;10.412;2024-03-23T08:27:32;13.30;73.40
7034;DHT22;3558;53.176;10.412;2024-03-23T08:29:58;13.30;73.50
7034;DHT22;3558;53.176;10.412;2024-03-23T08:32:23;13.30;73.50
7034;DHT22;3558;53.176;10.412;2024-03-23T08:34:49;13.40;73.50
7034;DHT22;3558;53.176;10.412;2024-03-23T08:37:14;13.40;73.40
7034;DHT22;3558;53.176;10.412;2024-03-23T08:39:40;13.50;73.50
7034;DHT22;3558;53.176;10.412;2024-03-23T08:42:06;13.50;73.40
7034;DHT22;3558;53.176;10.412;2024-03-23T08:44:31;13.50;73.40
7034;DHT22;3558;53.176;10.412;2024-03-23T08:46:57;13.60;73.30
7034;DHT22;3558;53.176;10.412;2024-03-23T08:49:22;13.70;73.30
7034;DHT22;3558;53.176;10.412;2024-03-23T08:51:48;13.70;73.20
7034;DHT22;3558;53.176;10.412;2024-03-23T08:54:13;13.80;73.20
7034;DHT22;3558;53.176;10.412;2024-03-23T08:56:39;13.80;73.00
7034;DHT22;3558;53.176;10.412;2024-03-23T08:59:04;13.90;73.00
7034;DHT22;3558;53.176;10.412;2024-03-23T09:01:30;13.90;73.00
7034;DHT22;3558;53.176;10.412;2024-03-23T09:03:55;14.00;72.90
7034;DHT22;3558;53.176;10.412;2024-03-23T09:06:21;14.00;72.80
7034;DHT22;3558;53.176;10.412;2024-03-23T09:08:46;14.10;72.80
7034;DHT22;3558;53.176;10.412;2024-03-23T09:11:13;14.10;72.90
7034;DHT22;3558;53.176;10.412;2024-03-23T09:13:39;14.20;72.90
7034;DHT22;3558;53.176;10.412;2024-03-23T09:16:06;14.30;72.90
7034;DHT22;3558;53.176;10.412;2024-03-23T09:18:33;14.30;73.10
7034;DHT22;3558;53.176;10.412;2024-03-23T09:20:58;14.40;72.90
7034;DHT22;3558;53.176;10.412;2024-03-23T09:23:24;14.50;72.70
7034;DHT22;3558;53.176;10.412;2024-03-23T09:25:50;14.50;72.60
7034;DHT22;3558;53.176;10.412;2024-03-23T09:28:15;14.70;72.70
7034;DHT22;3558;53.176;10.412;2024-03-23T09:30:41;14.70;72.60
7034;DHT22;3558;53.176;10.412;2024-03-23T09:33:10;14.90;72.40
7034;DHT22;3558;53.176;10.412;2024-03-23T09:35:40;15.00;72.00
7034;DHT22;3558;53.176;10.412;2024-03-23T09:38:06;15.10;71.60
7034;DHT22;3558;53.176;10.412;2024-03-23T09:40:39;15.10;72.20
7034;DHT22;3558;53.176;10.412;2024-03-23T09:43:06;15.10;71.90
7034;DHT22;3558;53.176;10.412;2024-03-23T09:45:35;15.20;72.10
7034;DHT22;3558;53.176;10.412;2024-03-23T09:48:02;15.10;72.30
7034;DHT22;3558;53.176;10.412;2024-03-23T09:50:28;15.20;72.40
7034;DHT22;3558;53.176;10.412;2024-03-23T09:52:54;15.20;72.30
7034;DHT22;3558;53.176;10.412;2024-03-23T09:55:19;15.20;72.30
7034;DHT22;3558;53.176;10.412;2024-03-23T09:57:45;15.20;72.30
7034;DHT22;3558;53.176;10.412;2024-03-23T10:00:11;15.30;72.30
7034;DHT22;3558;53.176;10.412;2024-03-23T10:02:37;15.30;72.50
7034;DHT22;3558;53.176;10.412;2024-03-23T10:05:03;15.30;72.70
7034;DHT22;3558;53.176;10.412;2024-03-23T10:07:29;15.30;72.50
7034;DHT22;3558;53.176;10.412;2024-03-23T10:09:55;15.30;72.60
7034;DHT22;3558;53.176;10.412;2024-03-23T10:12:22;15.30;72.80
7034;DHT22;3558;53.176;10.412;2024-03-23T10:14:47;15.30;72.80
7034;DHT22;3558;53.176;10.412;2024-03-23T10:17:15;15.30;72.70
7034;DHT22;3558;53.176;10.412;2024-03-23T10:19:46;15.40;72.70
7034;DHT22;3558;53.176;10.412;2024-03-23T10:22:23;15.40;72.70
7034;DHT22;3558;53.176;10.412;2024-03-23T10:24:49;15.40;72.50
7034;DHT22;3558;53.176;10.412;2024-03-23T10:27:17;15.40;72.50
7034;DHT22;3558;53.176;10.412;2024-03-23T10:29:43;15.40;72.60
7034;DHT22;3558;53.176;10.412;2024-03-23T10:32:13;15.30;72.70
7034;DHT22;3558;53.176;10.412;2024-03-23T10:34:40;15.30;72.60
7034;DHT22;3558;53.176;10.412;2024-03-23T10:37:06;15.40;72.50
7034;DHT22;3558;53.176;10.412;2024-03-23T10:39:37;15.40;72.40
7034;DHT22;3558;53.176;10.412;2024-03-23T10:42:07;15.50;72.40
7034;DHT22;3558;53.176;10.412;2024-03-23T10:44:33;15.50;72.30
7034;DHT22;3558;53.176;10.412;2024-03-23T10:47:00;15.50;72.30
7034;DHT22;3558;53.176;10.412;2024-03-23T10:49:34;15.60;72.60
7034;DHT22;3558;53.176;10.412;2024-03-23T10:52:03;15.60;72.80
7034;DHT22;3558;53.176;10.412;2024-03-23T10:54:33;15.70;73.00
7034;DHT22;3558;53.176;10.412;2024-03-23T10:57:14;15.70;72.90
7034;DHT22;3558;53.176;10.412;2024-03-23T10:59:42;15.80;72.70
7034;DHT22;3558;53.176;10.412;2024-03-23T11:02:19;15.80;72.80
7034;DHT22;3558;53.176;10.412;2024-03-23T11:04:45;15.90;72.90
7034;DHT22;3558;53.176;10.412;2024-03-23T11:07:32;16.00;73.10
7034;DHT22;3558;53.176;10.412;2024-03-23T11:09:59;16.00;74.10
7034;DHT22;3558;53.176;10.412;2024-03-23T11:12:25;16.10;76.10
7034;DHT22;3558;53.176;10.412;2024-03-23T11:14:55;16.20;77.60
7034;DHT22;3558;53.176;10.412;2024-03-23T11:17:23;16.30;78.40
7034;DHT22;3558;53.176;10.412;2024-03-23T11:20:02;16.40;79.20
7034;DHT22;3558;53.176;10.412;2024-03-23T11:25:19;16.60;79.90
7034;DHT22;3558;53.176;10.412;2024-03-23T11:27:50;16.70;80.00
7034;DHT22;3558;53.176;10.412;2024-03-23T11:30:19;16.80;80.10
7034;DHT22;3558;53.176;10.412;2024-03-23T11:32:47;16.90;80.30
7034;DHT22;3558;53.176;10.412;2024-03-23T11:35:37;17.00;80.60
7034;DHT22;3558;53.176;10.412;2024-03-23T11:38:14;17.10;80.80
7034;DHT22;3558;53.176;10.412;2024-03-23T11:40:44;17.20;81.10
7034;DHT22;3558;53.176;10.412;2024-03-23T11:43:19;17.30;81.20
7034;DHT22;3558;53.176;10.412;2024-03-23T11:45:52;17.40;81.40
7034;DHT22;3558;53.176;10.412;2024-03-23T11:48:22;17.50;81.50
7034;DHT22;3558;53.176;10.412;2024-03-23T11:50:50;17.60;80.60
7034;DHT22;3558;53.176;10.412;2024-03-23T11:53:19;17.60;79.90
7034;DHT22;3558;53.176;10.412;2024-03-23T11:55:53;17.70;79.10
7034;DHT22;3558;53.176;10.412;2024-03-23T11:58:20;17.70;78.70
7034;DHT22;3558;53.176;10.412;2024-03-23T12:03:17;17.70;77.20
7034;DHT22;3558;53.176;10.412;2024-03-23T12:05:48;17.70;77.20
7034;DHT22;3558;53.176;10.412;2024-03-23T12:08:24;17.70;77.40
7034;DHT22;3558;53.176;10.412;2024-03-23T12:11:13;17.70;77.10
7034;DHT22;3558;53.176;10.412;2024-03-23T12:13:40;17.70;76.80
7034;DHT22;3558;53.176;10.412;2024-03-23T12:18:45;17.70;77.00
7034;DHT22;3558;53.176;10.412;2024-03-23T12:21:10;17.70;77.00
7034;DHT22;3558;53.176;10.412;2024-03-23T12:23:39;17.70;77.10
7034;DHT22;3558;53.176;10.412;2024-03-23T12:26:05;17.80;76.80
7034;DHT22;3558;53.176;10.412;2024-03-23T12:28:31;17.70;76.80
7034;DHT22;3558;53.176;10.412;2024-03-23T12:30:57;17.80;76.00
7034;DHT22;3558;53.176;10.412;2024-03-23T12:33:22;17.80;76.70
7034;DHT22;3558;53.176;10.412;2024-03-23T12:35:51;17.80;76.50
7034;DHT22;3558;53.176;10.412;2024-03-23T12:38:17;17.80;76.50
7034;DHT22;3558;53.176;10.412;2024-03-23T12:40:46;17.90;77.00
7034;DHT22;3558;53.176;10.412;2024-03-23T12:43:13;17.90;77.10
7034;DHT22;3558;53.176;10.412;2024-03-23T12:45:39;17.90;77.20
7034;DHT22;3558;53.176;10.412;2024-03-23T12:48:04;18.00;77.50
7034;DHT22;3558;53.176;10.412;2024-03-23T12:50:30;18.00;77.60
7034;DHT22;3558;53.176;10.412;2024-03-23T12:52:55;18.10;77.80
7034;DHT22;3558;53.176;10.412;2024-03-23T12:55:21;18.10;77.80
7034;DHT22;3558;53.176;10.412;2024-03-23T12:57:47;18.10;77.90
7034;DHT22;3558;53.176;10.412;2024-03-23T13:00:13;18.20;77.90
7034;DHT22;3558;53.176;10.412;2024-03-23T13:02:39;18.20;77.60
7034;DHT22;3558;53.176;10.412;2024-03-23T13:05:05;18.30;77.40
7034;DHT22;3558;53.176;10.412;2024-03-23T13:07:30;18.30;76.70
7034;DHT22;3558;53.176;10.412;2024-03-23T13:09:56;18.30;76.50
7034;DHT22;3558;53.176;10.412;2024-03-23T13:12:25;18.40;76.40
7034;DHT22;3558;53.176;10.412;2024-03-23T13:14:50;18.40;76.20
7034;DHT22;3558;53.176;10.412;2024-03-23T13:17:16;18.40;76.00
7034;DHT22;3558;53.176;10.412;2024-03-23T13:19:41;18.40;75.70
7034;DHT22;3558;53.176;10.412;2024-03-23T13:22:07;18.50;76.10
7034;DHT22;3558;53.176;10.412;2024-03-23T13:24:33;18.50;75.40
7034;DHT22;3558;53.176;10.412;2024-03-23T13:26:59;18.60;75.30
7034;DHT22;3558;53.176;10.412;2024-03-23T13:29:25;18.60;75.20
7034;DHT22;3558;53.176;10.412;2024-03-23T13:31:51;18.60;74.50
7034;DHT22;3558;53.176;10.412;2024-03-23T13:34:17;18.60;73.60
7034;DHT22;3558;53.176;10.412;2024-03-23T13:36:44;18.60;72.50
7034;DHT22;3558;53.176;10.412;2024-03-23T13:39:10;18.50;71.50
7034;DHT22;3558;53.176;10.412;2024-03-23T13:41:40;18.40;70.90
7034;DHT22;3558;53.176;10.412;2024-03-23T13:44:09;18.30;70.40
7034;DHT22;3558;53.176;10.412;2024-03-23T13:46:39;18.20;69.80
7034;DHT22;3558;53.176;10.412;2024-03-23T13:49:05;18.10;69.40
7034;DHT22;3558;53.176;10.412;2024-03-23T13:51:31;18.00;69.30
7034;DHT22;3558;53.176;10.412;2024-03-23T13:53:57;17.90;69.20
7034;DHT22;3558;53.176;10.412;2024-03-23T13:56:26;17.80;69.40
7034;DHT22;3558;53.176;10.412;2024-03-23T13:58:53;17.70;69.20
7034;DHT22;3558;53.176;10.412;2024-03-23T14:01:19;17.60;69.40
7034;DHT22;3558;53.176;10.412;2024-03-23T14:03:44;17.60;69.30
7034;DHT22;3558;53.176;10.412;2024-03-23T14:06:10;17.40;69.00
7034;DHT22;3558;53.176;10.412;2024-03-23T14:08:37;17.30;68.90
7034;DHT22;3558;53.176;10.412;2024-03-23T14:11:05;17.10;68.70
7034;DHT22;3558;53.176;10.412;2024-03-23T14:13:30;17.10;68.40
7034;DHT22;3558;53.176;10.412;2024-03-23T14:15:57;17.00;68.10
7034;DHT22;3558;53.176;10.412;2024-03-23T14:18:22;16.90;67.80
7034;DHT22;3558;53.176;10.412;2024-03-23T14:20:49;16.80;67.60
7034;DHT22;3558;53.176;10.412;2024-03-23T14:23:15;16.60;67.40
7034;DHT22;3558;53.176;10.412;2024-03-23T14:25:41;16.50;67.50
7034;DHT22;3558;53.176;10.412;2024-03-23T14:28:06;16.40;67.40
7034;DHT22;3558;53.176;10.412;2024-03-23T14:30:34;16.30;67.40
7034;DHT22;3558;53.176;10.412;2024-03-23T14:33:00;16.30;67.60
7034;DHT22;3558;53.176;10.412;2024-03-23T14:35:25;16.20;67.70
7034;DHT22;3558;53.176;10.412;2024-03-23T14:37:52;16.20;67.80
7034;DHT22;3558;53.176;10.412;2024-03-23T14:40:18;16.10;67.70
7034;DHT22;3558;53.176;10.412;2024-03-23T14:42:44;16.10;67.80
7034;DHT22;3558;53.176;10.412;2024-03-23T14:45:09;16.10;67.90
7034;DHT22;3558;53.176;10.412;2024-03-23T14:47:36;16.10;68.00
7034;DHT22;3558;53.176;10.412;2024-03-23T14:50:02;16.00;67.90
7034;DHT22;3558;53.176;10.412;2024-03-23T14:52:28;16.00;67.90
7034;DHT22;3558;53.176;10.412;2024-03-23T14:54:54;16.10;67.90
7034;DHT22;3558;53.176;10.412;2024-03-23T14:57:21;16.00;67.90
7034;DHT22;3558;53.176;10.412;2024-03-23T14:59:46;16.00;68.50
7034;DHT22;3558;53.176;10.412;2024-03-23T15:02:12;16.00;68.10
7034;DHT22;3558;53.176;10.412;2024-03-23T15:04:38;16.00;68.00
7034;DHT22;3558;53.176;10.412;2024-03-23T15:07:07;16.00;68.10
7034;DHT22;3558;53.176;10.412;2024-03-23T15:09:32;16.00;68.20
7034;DHT22;3558;53.176;10.412;2024-03-23T15:11:58;16.00;68.30
7034;DHT22;3558;53.176;10.412;2024-03-23T15:14:23;16.00;68.30
7034;DHT22;3558;53.176;10.412;2024-03-23T15:16:49;16.00;68.50
7034;DHT22;3558;53.176;10.412;2024-03-23T15:19:15;16.00;68.40
7034;DHT22;3558;53.176;10.412;2024-03-23T15:21:42;16.00;68.50
7034;DHT22;3558;53.176;10.412;2024-03-23T15:24:08;16.00;68.50
7034;DHT22;3558;53.176;10.412;2024-03-23T15:26:36;16.00;68.60
7034;DHT22;3558;53.176;10.412;2024-03-23T15:29:02;16.00;68.50
7034;DHT22;3558;53.176;10.412;2024-03-23T15:31:28;16.00;68.40
7034;DHT22;3558;53.176;10.412;2024-03-23T15:33:55;16.00;68.50
7034;DHT22;3558;53.176;10.412;2024-03-23T15:36:20;15.90;68.40
7034;DHT22;3558;53.176;10.412;2024-03-23T15:38:46;16.00;68.80
7034;DHT22;3558;53.176;10.412;2024-03-23T15:41:11;15.90;68.70
7034;DHT22;3558;53.176;10.412;2024-03-23T15:43:37;15.90;68.80
7034;DHT22;3558;53.176;10.412;2024-03-23T15:46:04;15.90;68.80
7034;DHT22;3558;53.176;10.412;2024-03-23T15:48:31;15.80;68.50
7034;DHT22;3558;53.176;10.412;2024-03-23T15:51:01;15.80;68.60
7034;DHT22;3558;53.176;10.412;2024-03-23T15:53:27;15.70;68.40
7034;DHT22;3558;53.176;10.412;2024-03-23T15:56:00;15.70;68.30
7034;DHT22;3558;53.176;10.412;2024-03-23T15:58:27;15.70;68.30
7034;DHT22;3558;53.176;10.412;2024-03-23T16:01:02;15.70;68.30
7034;DHT22;3558;53.176;10.412;2024-03-23T16:03:29;15.60;68.20
7034;DHT22;3558;53.176;10.412;2024-03-23T16:06:02;15.60;68.30
7034;DHT22;3558;53.176;10.412;2024-03-23T16:08:29;15.60;68.30
7034;DHT22;3558;53.176;10.412;2024-03-23T16:10:59;15.60;68.30
7034;DHT22;3558;53.176;10.412;2024-03-23T16:13:25;15.60;68.30
7034;DHT22;3558;53.176;10.412;2024-03-23T16:15:57;15.60;68.30
7034;DHT22;3558;53.176;10.412;2024-03-23T16:18:24;15.50;68.20
7034;DHT22;3558;53.176;10.412;2024-03-23T16:20:56;15.50;68.20
7034;DHT22;3558;53.176;10.412;2024-03-23T16:23:22;15.50;68.20
7034;DHT22;3558;53.176;10.412;2024-03-23T16:25:51;15.50;68.20
7034;DHT22;3558;53.176;10.412;2024-03-23T16:28:31;15.40;68.10
7034;DHT22;3558;53.176;10.412;2024-03-23T16:31:02;15.40;68.00
7034;DHT22;3558;53.176;10.412;2024-03-23T16:33:28;15.40;68.10
7034;DHT22;3558;53.176;10.412;2024-03-23T16:36:20;15.40;68.10
7034;DHT22;3558;53.176;10.412;2024-03-23T16:38:47;15.30;68.10
7034;DHT22;3558;53.176;10.412;2024-03-23T16:41:13;15.30;68.00
7034;DHT22;3558;53.176;10.412;2024-03-23T16:43:40;15.30;68.10
7034;DHT22;3558;53.176;10.412;2024-03-23T16:46:10;15.20;68.00
7034;DHT22;3558;53.176;10.412;2024-03-23T16:48:40;15.20;68.00
7034;DHT22;3558;53.176;10.412;2024-03-23T16:51:06;15.20;68.10
7034;DHT22;3558;53.176;10.412;2024-03-23T16:53:33;15.10;67.80
7034;DHT22;3558;53.176;10.412;2024-03-23T16:56:03;15.00;67.50
7034;DHT22;3558;53.176;10.412;2024-03-23T16:58:31;15.00;67.50
7034;DHT22;3558;53.176;10.412;2024-03-23T17:00:58;14.90;67.20
7034;DHT22;3558;53.176;10.412;2024-03-23T17:03:27;14.90;67.10
7034;DHT22;3558;53.176;10.412;2024-03-23T17:05:53;14.80;67.00
7034;DHT22;3558;53.176;10.412;2024-03-23T17:08:19;14.80;67.00
7034;DHT22;3558;53.176;10.412;2024-03-23T17:10:45;14.70;66.90
7034;DHT22;3558;53.176;10.412;2024-03-23T17:13:11;14.60;66.80
7034;DHT22;3558;53.176;10.412;2024-03-23T17:15:44;14.70;66.90
7034;DHT22;3558;53.176;10.412;2024-03-23T17:18:09;14.70;66.90
7034;DHT22;3558;53.176;10.412;2024-03-23T17:20:35;14.60;66.80
7034;DHT22;3558;53.176;10.412;2024-03-23T17:23:01;14.60;66.80
7034;DHT22;3558;53.176;10.412;2024-03-23T17:25:27;14.60;66.70
7034;DHT22;3558;53.176;10.412;2024-03-23T17:27:52;14.50;66.60
7034;DHT22;3558;53.176;10.412;2024-03-23T17:30:18;14.60;66.60
7034;DHT22;3558;53.176;10.412;2024-03-23T17:32:44;14.50;66.50
7034;DHT22;3558;53.176;10.412;2024-03-23T17:35:14;14.40;66.40
7034;DHT22;3558;53.176;10.412;2024-03-23T17:37:40;14.40;66.30
7034;DHT22;3558;53.176;10.412;2024-03-23T17:40:06;14.40;66.30
7034;DHT22;3558;53.176;10.412;2024-03-23T17:42:35;14.30;66.10
7034;DHT22;3558;53.176;10.412;2024-03-23T17:45:02;14.30;66.10
7034;DHT22;3558;53.176;10.412;2024-03-23T17:47:28;14.20;66.00
7034;DHT22;3558;53.176;10.412;2024-03-23T17:49:53;14.20;65.90
7034;DHT22;3558;53.176;10.412;2024-03-23T17:52:19;14.10;65.80
7034;DHT22;3558;53.176;10.412;2024-03-23T17:54:47;14.10;65.90
7034;DHT22;3558;53.176;10.412;2024-03-23T17:57:14;14.00;65.70
7034;DHT22;3558;53.176;10.412;2024-03-23T17:59:39;14.00;65.70
7034;DHT22;3558;53.176;10.412;2024-03-23T18:02:05;14.00;65.60
7034;DHT22;3558;53.176;10.412;2024-03-23T18:04:30;13.90;65.50
7034;DHT22;3558;53.176;10.412;2024-03-23T18:06:56;13.90;65.50
7034;DHT22;3558;53.176;10.412;2024-03-23T18:09:21;13.80;65.50
7034;DHT22;3558;53.176;10.412;2024-03-23T18:11:47;13.80;65.40
7034;DHT22;3558;53.176;10.412;2024-03-23T18:14:12;13.80;65.40
7034;DHT22;3558;53.176;10.412;2024-03-23T18:16:38;13.70;65.30
7034;DHT22;3558;53.176;10.412;2024-03-23T18:19:03;13.70;65.90
7034;DHT22;3558;53.176;10.412;2024-03-23T18:21:30;13.70;65.30
7034;DHT22;3558;53.176;10.412;2024-03-23T18:23:55;13.60;65.30
7034;DHT22;3558;53.176;10.412;2024-03-23T18:26:21;13.60;65.30
7034;DHT22;3558;53.176;10.412;2024-03-23T18:28:50;13.60;65.30
7034;DHT22;3558;53.176;10.412;2024-03-23T18:31:17;13.50;65.20
7034;DHT22;3558;53.176;10.412;2024-03-23T18:33:42;13.50;65.30
7034;DHT22;3558;53.176;10.412;2024-03-23T18:36:08;13.50;65.20
7034;DHT22;3558;53.176;10.412;2024-03-23T18:38:36;13.40;65.10
7034;DHT22;3558;53.176;10.412;2024-03-23T18:41:01;13.40;65.10
7034;DHT22;3558;53.176;10.412;2024-03-23T18:43:27;13.40;65.10
7034;DHT22;3558;53.176;10.412;2024-03-23T18:45:53;13.30;65.00
7034;DHT22;3558;53.176;10.412;2024-03-23T18:48:18;13.30;65.00
7034;DHT22;3558;53.176;10.412;2024-03-23T18:50:44;13.20;64.90
7034;DHT22;3558;53.176;10.412;2024-03-23T18:53:10;13.20;64.90
7034;DHT22;3558;53.176;10.412;2024-03-23T18:55:37;13.20;65.00
7034;DHT22;3558;53.176;10.412;2024-03-23T18:58:03;13.20;64.90
7034;DHT22;3558;53.176;10.412;2024-03-23T19:00:29;13.20;64.90
7034;DHT22;3558;53.176;10.412;2024-03-23T19:02:54;13.10;64.80
7034;DHT22;3558;53.176;10.412;2024-03-23T19:05:20;13.10;64.80
7034;DHT22;3558;53.176;10.412;2024-03-23T19:07:45;13.00;64.70
7034;DHT22;3558;53.176;10.412;2024-03-23T19:10:11;13.00;64.70
7034;DHT22;3558;53.176;10.412;2024-03-23T19:12:36;12.90;64.60
7034;DHT22;3558;53.176;10.412;2024-03-23T19:15:02;12.90;64.60
7034;DHT22;3558;53.176;10.412;2024-03-23T19:17:30;12.90;64.60
7034;DHT22;3558;53.176;10.412;2024-03-23T19:19:55;12.80;64.50
7034;DHT22;3558;53.176;10.412;2024-03-23T19:22:21;12.80;64.50
7034;DHT22;3558;53.176;10.412;2024-03-23T19:24:46;12.80;64.60
7034;DHT22;3558;53.176;10.412;2024-03-23T19:27:12;12.70;64.50
7034;DHT22;3558;53.176;10.412;2024-03-23T19:29:37;12.70;64.50
7034;DHT22;3558;53.176;10.412;2024-03-23T19:32:03;12.70;64.50
7034;DHT22;3558;53.176;10.412;2024-03-23T19:34:28;12.60;64.40
7034;DHT22;3558;53.176;10.412;2024-03-23T19:36:54;12.60;64.40